createdAt,value
2019-05-02T00:06:07.512Z,12.37
2019-05-02T00:17:08.549Z,12.08
2019-05-02T00:28:12.311Z,11.53
2019-05-02T00:39:16.666Z,11.28
2019-05-02T00:50:12.922Z,11.06
2019-05-02T01:01:16.928Z,10.87
2019-05-02T01:12:26.212Z,10.66
2019-05-02T01:23:23.057Z,10.34
2019-05-02T01:34:25.857Z,10.25
2019-05-02T01:45:23.301Z,10.00
2019-05-02T01:56:28.454Z,9.78
2019-05-02T02:07:29.178Z,9.78
2019-05-02T02:18:27.989Z,9.24
2019-05-02T02:29:31.297Z,9.00
2019-05-02T02:40:33.495Z,8.69
2019-05-02T02:51:37.886Z,8.70
2019-05-02T03:02:47.821Z,8.55
2019-05-02T03:13:52.474Z,8.24
2019-05-02T03:24:49.820Z,8.24
2019-05-02T03:35:53.973Z,8.15
2019-05-02T03:47:02.321Z,7.97
2019-05-02T03:58:12.816Z,7.83
2019-05-02T04:09:07.093Z,7.64
2019-05-02T04:20:09.694Z,7.81
2019-05-02T04:31:11.774Z,7.96
2019-05-02T04:42:18.734Z,8.25
2019-05-02T04:53:15.043Z,8.55
2019-05-02T05:04:15.139Z,8.84
2019-05-02T05:15:33.797Z,9.10
2019-05-02T05:26:17.559Z,9.60
2019-05-02T05:37:21.369Z,10.47
2019-05-02T05:48:18.957Z,10.66
2019-05-02T05:59:30.375Z,11.76
2019-05-02T06:10:38.975Z,12.28
2019-05-02T06:21:45.154Z,12.55
2019-05-02T06:32:54.423Z,13.52
2019-05-02T06:43:50.011Z,14.03
2019-05-02T06:54:54.050Z,14.49
2019-05-02T07:05:58.637Z,14.98
2019-05-02T07:17:05.628Z,15.45
2019-05-02T07:28:10.638Z,15.97
2019-05-02T07:39:15.047Z,16.26
2019-05-02T07:50:16.534Z,16.52
2019-05-02T08:01:22.015Z,16.95
2019-05-02T08:12:26.165Z,17.35
2019-05-02T08:23:28.013Z,18.04
2019-05-02T08:34:30.260Z,18.47
2019-05-02T08:45:38.086Z,18.92
2019-05-02T08:56:34.997Z,19.23
2019-05-02T09:07:39.370Z,19.40
2019-05-02T09:18:50.667Z,19.97
2019-05-02T09:29:52.001Z,20.27
2019-05-02T09:40:56.209Z,20.53
2019-05-02T09:52:00.719Z,20.68
2019-05-02T10:03:04.853Z,21.30
2019-05-02T10:14:04.339Z,21.19
2019-05-02T10:25:03.856Z,21.26
2019-05-02T10:36:04.122Z,21.98
2019-05-02T10:46:45.138Z,21.76
2019-05-02T10:57:52.742Z,22.84
2019-05-02T11:08:42.114Z,22.96
2019-05-02T11:19:21.882Z,23.37
2019-05-02T11:30:05.865Z,24.85
2019-05-02T11:40:52.695Z,25.38
2019-05-02T11:51:30.066Z,26.35
2019-05-02T12:02:17.566Z,26.07
2019-05-02T12:12:58.460Z,25.70
2019-05-02T12:23:32.336Z,25.84
2019-05-02T12:34:14.481Z,25.79
2019-05-02T12:44:55.255Z,25.79
2019-05-02T12:55:33.429Z,26.35
2019-05-02T13:06:12.362Z,28.06
2019-05-02T13:17:01.326Z,28.59
2019-05-02T13:27:44.383Z,28.93
2019-05-02T13:38:24.739Z,28.26
2019-05-02T13:49:02.163Z,25.72
2019-05-02T13:59:41.660Z,28.96
2019-05-02T14:10:32.238Z,29.73
2019-05-02T14:21:13.480Z,29.63
2019-05-02T14:31:57.425Z,30.34
2019-05-02T14:42:42.791Z,30.08
2019-05-02T14:53:25.497Z,30.15
2019-05-02T15:04:10.334Z,27.62
2019-05-02T15:14:49.751Z,30.14
2019-05-02T15:25:27.597Z,28.50
2019-05-02T15:36:07.485Z,27.27
2019-05-02T15:46:36.865Z,27.89
2019-05-02T15:57:12.958Z,25.42
2019-05-02T16:08:05.276Z,24.95
2019-05-02T16:18:43.568Z,24.25
2019-05-02T16:29:28.172Z,23.95
2019-05-02T16:40:34.332Z,23.15
2019-05-02T16:51:33.984Z,22.92
2019-05-02T17:02:37.872Z,22.72
2019-05-02T17:13:35.880Z,22.19
2019-05-02T17:24:30.028Z,21.95
2019-05-02T17:35:32.542Z,21.19
2019-05-02T17:46:28.081Z,20.24
2019-05-02T17:57:28.483Z,19.94
2019-05-02T18:08:23.134Z,18.84
2019-05-02T18:19:23.154Z,19.28
2019-05-02T18:30:27.062Z,18.40
2019-05-02T18:41:27.638Z,17.60
2019-05-02T18:52:35.062Z,17.20
2019-05-02T19:03:23.013Z,16.75
2019-05-02T19:14:22.337Z,16.26
2019-05-02T19:25:22.751Z,16.03
2019-05-02T19:36:27.705Z,15.57
2019-05-02T19:47:24.942Z,15.26
2019-05-02T19:58:22.860Z,14.98
2019-05-02T20:09:24.940Z,14.80
2019-05-02T20:20:21.653Z,14.90
2019-05-02T20:31:23.669Z,14.74
2019-05-02T20:42:24.353Z,14.56
2019-05-02T20:53:28.803Z,14.78
2019-05-02T21:04:27.159Z,17.25
2019-05-02T21:15:29.730Z,17.21
2019-05-02T21:26:27.432Z,16.06
2019-05-02T21:37:25.298Z,16.40
2019-05-02T21:48:24.108Z,15.79
2019-05-02T21:59:23.827Z,16.56
2019-05-02T22:10:29.415Z,17.64
2019-05-02T22:21:34.717Z,17.89
2019-05-02T22:32:37.125Z,17.84
2019-05-02T22:43:36.553Z,17.26
2019-05-02T22:54:33.944Z,16.56
2019-05-02T23:05:32.094Z,15.41
2019-05-02T23:16:34.629Z,14.90
2019-05-02T23:27:37.227Z,14.46
2019-05-02T23:38:41.471Z,14.02
2019-05-02T23:49:40.302Z,14.11
